Thunder radar more information blitzortung!


Rain radar more information rain snow radar



Rapports METAR proximité

   
EHVK - Volkel Rnlafb, Netherlands
Distance: SO 18 km
Mise à jour: 22-01-2021 07:55
Nuageux  
Nuageux  
   Vent: SO 18.5 km/h
Vent: SO 18.5 km/h
Température: 3°C
éolien: -1°C
Point de rosée: 2°C
Humidité: 93%
Baromètre: 989 hPa
Nuageux: Nuageux
visibilité: More than 10 km
Détails des nuages: Peu de nuages 800 ft,
Nuageux 15000 ft
EHVK 220655Z AUTO 22010KT 9999 FEW008/// OVC150/// 03/02 Q0989 BLU
EDLV - Niederrhein, Germany
Distance: SE 25 km
Mise à jour: 22-01-2021 07:50
Nuageux  
Nuageux  
   Vent: SO 16.7 km/h
Vent: SO 16.7 km/h
Température: 4°C
éolien: 0°C
Point de rosée: 3°C
Humidité: 93%
Baromètre: 990 hPa
Nuageux: Nuageux
visibilité: More than 10 km
Détails des nuages: Nuageux 1000 ft
EDLV 220650Z 22009KT 200V260 9999 BKN010 04/03 Q0990
EHDL - Deelen Rnlafb, Netherlands
Distance: N 35 km
Mise à jour: 22-01-2021 07:55
Brouillard, Nuageux  
Brouillard, Nuageux  
   Vent: SO 20.4 km/h
Vent: SO 20.4 km/h
Température: 4°C
éolien: 0°C
Point de rosée: 3°C
Humidité: 93%
Baromètre: 989 hPa
Nuageux: Nuageux
visibilité: 7 km
Détails des nuages: Nuageux 500 ft,
Nuageux 600 ft
EHDL 220655Z AUTO 22011KT 160V260 7000 BR BKN005 OVC006 04/03 Q0989 YLO
EHEH - Eindhoven Rnlafb, Netherlands
Distance: SO 48 km
Mise à jour: 22-01-2021 07:55
Nuageux  
Nuageux  
   Vent: SO 16.7 km/h
Vent: SO 16.7 km/h
Température: 3°C
éolien: -1°C
Point de rosée: 3°C
Humidité: 100%
Baromètre: 990 hPa
Nuageux: Nuageux
visibilité: More than 10 km
Détails des nuages: Peu de nuages 800 ft,
Nuageux 14000 ft
EHEH 220655Z AUTO 22009KT 190V250 9999 FEW008 OVC140 03/03 Q0990 BLU TEMPO SCT008 BKN015 OVC170
EHGR - Gilze-Rijen Rnla, Netherlands
Distance: OSO 70 km
Mise à jour: 22-01-2021 07:55
Nuageux  
Nuageux  
   Vent: SSO 13 km/h
Vent: SSO 13 km/h
Température: 3°C
éolien: -1°C
Point de rosée: 2°C
Humidité: 93%
Baromètre: 990 hPa
Nuageux: Nuageux
visibilité: More than 10 km
Détails des nuages: Nuageux 21000 ft
EHGR 220655Z AUTO 21007KT 190V260 9999 OVC210 03/02 Q0990 BLU
EBBL - Kleine-Brogel(Ba, Belgium
Distance: SSO 71 km
Mise à jour: 20-01-2021 19:55
PAS actuel
Nuageux  
Nuageux  
   Vent: Sud 9.3 km/h
Vent: Sud 9.3 km/h
Température: 9°C
éolien: 8°C
Point de rosée: 2°C
Humidité: 62%
Baromètre: 994 hPa
Nuageux: Nuageux
visibilité: More than 10 km
Détails des nuages: Partiellement nuageux 14000 ft,
Nuageux 23000 ft
EBBL 201855Z AUTO 18005KT 9999 SCT140/// BKN230/// 09/02 Q0994 BLU

Script développé par  Saratoga-weather.org Adapté pour le modèle par  Weerstation Leuven

Vous trouverez notre info météo Également à:

Weather Underground

Équipement que nous utilisons:

Station de Météo
Davis VP2

Programme Météo
Meteobridge

Ordinateur Météo
Apple Imac

Davis VP2

Meteobridge

Apple Imac